Aviation Digital Data Service (ADDS)

Output produced by METARs form (1547 UTC 20 March 2019)
found at http://www.aviationweather.gov/metar/data/
 
METAR text: HSSS 201500Z 34009KT CAVOK 37/M05 Q1007 NOSIG
Conditions at: HSSS (KHARTOUM (CIV/MI, SD) observed 1500 UTC 20 March 2019
Temperature: 37.0°C (99°F)
Dewpoint: -5.0°C (23°F) [RH =  7%]
Pressure (altimeter): 29.73 inches Hg (1007.0 mb)
Winds: from the NNW (340 degrees) at 10 MPH (9 knots; 4.6 m/s)
Visibility: 6 or more miles (10+ km)
Ceiling: ceiling and visibility are OK
Clouds: unknown
Weather: no significant weather observed at this time

METAR text: HSSS 201430Z 36015KT CAVOK 37/M05 Q1006 NOSIG
Conditions at: HSSS (KHARTOUM (CIV/MI, SD) observed 1430 UTC 20 March 2019
Temperature: 37.0°C (99°F)
Dewpoint: -5.0°C (23°F) [RH =  7%]
Pressure (altimeter): 29.70 inches Hg (1006.0 mb)
Winds: from the N (360 degrees) at 17 MPH (15 knots; 7.7 m/s)
Visibility: 6 or more miles (10+ km)
Ceiling: ceiling and visibility are OK
Clouds: unknown
Weather: no significant weather observed at this time

METAR text: HSSS 201400Z 36013KT CAVOK 37/M05 Q1006 NOSIG
Conditions at: HSSS (KHARTOUM (CIV/MI, SD) observed 1400 UTC 20 March 2019
Temperature: 37.0°C (99°F)
Dewpoint: -5.0°C (23°F) [RH =  7%]
Pressure (altimeter): 29.70 inches Hg (1006.0 mb)
Winds: from the N (360 degrees) at 15 MPH (13 knots; 6.7 m/s)
Visibility: 6 or more miles (10+ km)
Ceiling: ceiling and visibility are OK
Clouds: unknown
Weather: no significant weather observed at this time

METAR text: HSSS 201330Z 01010KT CAVOK 37/M05 Q1007 NOSIG
Conditions at: HSSS (KHARTOUM (CIV/MI, SD) observed 1330 UTC 20 March 2019
Temperature: 37.0°C (99°F)
Dewpoint: -5.0°C (23°F) [RH =  7%]
Pressure (altimeter): 29.73 inches Hg (1007.0 mb)
Winds: from the N (10 degrees) at 12 MPH (10 knots; 5.1 m/s)
Visibility: 6 or more miles (10+ km)
Ceiling: ceiling and visibility are OK
Clouds: unknown
Weather: no significant weather observed at this time

METAR text: HSSS 201300Z 02013KT CAVOK 37/M05 Q1007 NOSIG
Conditions at: HSSS (KHARTOUM (CIV/MI, SD) observed 1300 UTC 20 March 2019
Temperature: 37.0°C (99°F)
Dewpoint: -5.0°C (23°F) [RH =  7%]
Pressure (altimeter): 29.73 inches Hg (1007.0 mb)
Winds: from the NNE (20 degrees) at 15 MPH (13 knots; 6.7 m/s)
Visibility: 6 or more miles (10+ km)
Ceiling: ceiling and visibility are OK
Clouds: unknown
Weather: no significant weather observed at this time

METAR text: HSSS 201200Z 36010KT CAVOK 36/M03 Q1008 NOSIG
Conditions at: HSSS (KHARTOUM (CIV/MI, SD) observed 1200 UTC 20 March 2019
Temperature: 36.0°C (97°F)
Dewpoint: -3.0°C (27°F) [RH =  8%]
Pressure (altimeter): 29.76 inches Hg (1008.0 mb)
Winds: from the N (360 degrees) at 12 MPH (10 knots; 5.1 m/s)
Visibility: 6 or more miles (10+ km)
Ceiling: ceiling and visibility are OK
Clouds: unknown
Weather: no significant weather observed at this time

METAR text: HSSS 201130Z 33007KT CAVOK 35/M01 Q1008 NOSIG
Conditions at: HSSS (KHARTOUM (CIV/MI, SD) observed 1130 UTC 20 March 2019
Temperature: 35.0°C (95°F)
Dewpoint: -1.0°C (30°F) [RH = 10%]
Pressure (altimeter): 29.76 inches Hg (1008.0 mb)
Winds: from the NNW (330 degrees) at 8 MPH (7 knots; 3.6 m/s)
Visibility: 6 or more miles (10+ km)
Ceiling: ceiling and visibility are OK
Clouds: unknown
Weather: no significant weather observed at this time

METAR text: HSSS 201100Z 32008KT CAVOK 35/M01 Q1008 NOSIG
Conditions at: HSSS (KHARTOUM (CIV/MI, SD) observed 1100 UTC 20 March 2019
Temperature: 35.0°C (95°F)
Dewpoint: -1.0°C (30°F) [RH = 10%]
Pressure (altimeter): 29.76 inches Hg (1008.0 mb)
Winds: from the NW (320 degrees) at 9 MPH (8 knots; 4.1 m/s)
Visibility: 6 or more miles (10+ km)
Ceiling: ceiling and visibility are OK
Clouds: unknown
Weather: no significant weather observed at this time

METAR text: HSSS 201030Z 32007KT CAVOK 35/M01 Q1009 NOSIG
Conditions at: HSSS (KHARTOUM (CIV/MI, SD) observed 1030 UTC 20 March 2019
Temperature: 35.0°C (95°F)
Dewpoint: -1.0°C (30°F) [RH = 10%]
Pressure (altimeter): 29.79 inches Hg (1009.0 mb)
Winds: from the NW (320 degrees) at 8 MPH (7 knots; 3.6 m/s)
Visibility: 6 or more miles (10+ km)
Ceiling: ceiling and visibility are OK
Clouds: unknown
Weather: no significant weather observed at this time

METAR text: HSSS 201000Z 03010KT CAVOK 35/M01 Q1009 NOSIG
Conditions at: HSSS (KHARTOUM (CIV/MI, SD) observed 1000 UTC 20 March 2019
Temperature: 35.0°C (95°F)
Dewpoint: -1.0°C (30°F) [RH = 10%]
Pressure (altimeter): 29.79 inches Hg (1009.0 mb)
Winds: from the NNE (30 degrees) at 12 MPH (10 knots; 5.1 m/s)
Visibility: 6 or more miles (10+ km)
Ceiling: ceiling and visibility are OK
Clouds: unknown
Weather: no significant weather observed at this time

METAR text: HSSS 200930Z 36008KT CAVOK 34/01 Q1010 NOSIG
Conditions at: HSSS (KHARTOUM (CIV/MI, SD) observed 0930 UTC 20 March 2019
Temperature: 34.0°C (93°F)
Dewpoint: 1.0°C (34°F) [RH = 12%]
Pressure (altimeter): 29.82 inches Hg (1010.0 mb)
Winds: from the N (360 degrees) at 9 MPH (8 knots; 4.1 m/s)
Visibility: 6 or more miles (10+ km)
Ceiling: ceiling and visibility are OK
Clouds: unknown
Weather: no significant weather observed at this time

METAR text: HSSS 200900Z 34012KT CAVOK 34/01 Q1010 NOSIG
Conditions at: HSSS (KHARTOUM (CIV/MI, SD) observed 0900 UTC 20 March 2019
Temperature: 34.0°C (93°F)
Dewpoint: 1.0°C (34°F) [RH = 12%]
Pressure (altimeter): 29.82 inches Hg (1010.0 mb)
Winds: from the NNW (340 degrees) at 14 MPH (12 knots; 6.2 m/s)
Visibility: 6 or more miles (10+ km)
Ceiling: ceiling and visibility are OK
Clouds: unknown
Weather: no significant weather observed at this time

METAR text: HSSS 200830Z 33010KT CAVOK 33/00 Q1011 NOSIG
Conditions at: HSSS (KHARTOUM (CIV/MI, SD) observed 0830 UTC 20 March 2019
Temperature: 33.0°C (91°F)
Dewpoint: 0.0°C (32°F) [RH = 12%]
Pressure (altimeter): 29.85 inches Hg (1011.0 mb)
Winds: from the NNW (330 degrees) at 12 MPH (10 knots; 5.1 m/s)
Visibility: 6 or more miles (10+ km)
Ceiling: ceiling and visibility are OK
Clouds: unknown
Weather: no significant weather observed at this time

METAR text: HSSS 200800Z 35012KT CAVOK 32/00 Q1012 NOSIG
Conditions at: HSSS (KHARTOUM (CIV/MI, SD) observed 0800 UTC 20 March 2019
Temperature: 32.0°C (90°F)
Dewpoint: 0.0°C (32°F) [RH = 13%]
Pressure (altimeter): 29.88 inches Hg (1012.0 mb)
Winds: from the N (350 degrees) at 14 MPH (12 knots; 6.2 m/s)
Visibility: 6 or more miles (10+ km)
Ceiling: ceiling and visibility are OK
Clouds: unknown
Weather: no significant weather observed at this time

METAR text: HSSS 200730Z 02013KT CAVOK 30/M01 Q1012 NOSIG
Conditions at: HSSS (KHARTOUM (CIV/MI, SD) observed 0730 UTC 20 March 2019
Temperature: 30.0°C (86°F)
Dewpoint: -1.0°C (30°F) [RH = 13%]
Pressure (altimeter): 29.88 inches Hg (1012.0 mb)
Winds: from the NNE (20 degrees) at 15 MPH (13 knots; 6.7 m/s)
Visibility: 6 or more miles (10+ km)
Ceiling: ceiling and visibility are OK
Clouds: unknown
Weather: no significant weather observed at this time

METAR text: HSSS 200700Z 03010KT CAVOK 28/M02 Q1011 NOSIG
Conditions at: HSSS (KHARTOUM (CIV/MI, SD) observed 0700 UTC 20 March 2019
Temperature: 28.0°C (82°F)
Dewpoint: -2.0°C (28°F) [RH = 14%]
Pressure (altimeter): 29.85 inches Hg (1011.0 mb)
Winds: from the NNE (30 degrees) at 12 MPH (10 knots; 5.1 m/s)
Visibility: 6 or more miles (10+ km)
Ceiling: ceiling and visibility are OK
Clouds: unknown
Weather: no significant weather observed at this time

METAR text: HSSS 200630Z 35010KT CAVOK 27/M05 Q1011 NOSIG
Conditions at: HSSS (KHARTOUM (CIV/MI, SD) observed 0630 UTC 20 March 2019
Temperature: 27.0°C (81°F)
Dewpoint: -5.0°C (23°F) [RH = 12%]
Pressure (altimeter): 29.85 inches Hg (1011.0 mb)
Winds: from the N (350 degrees) at 12 MPH (10 knots; 5.1 m/s)
Visibility: 6 or more miles (10+ km)
Ceiling: ceiling and visibility are OK
Clouds: unknown
Weather: no significant weather observed at this time

METAR text: HSSS 200600Z 35007KT CAVOK 25/M05 Q1011 NOSIG
Conditions at: HSSS (KHARTOUM (CIV/MI, SD) observed 0600 UTC 20 March 2019
Temperature: 25.0°C (77°F)
Dewpoint: -5.0°C (23°F) [RH = 13%]
Pressure (altimeter): 29.85 inches Hg (1011.0 mb)
Winds: from the N (350 degrees) at 8 MPH (7 knots; 3.6 m/s)
Visibility: 6 or more miles (10+ km)
Ceiling: ceiling and visibility are OK
Clouds: unknown
Weather: no significant weather observed at this time

METAR text: HSSS 200530Z 34005KT CAVOK 24/M08 Q1010 NOSIG
Conditions at: HSSS (KHARTOUM (CIV/MI, SD) observed 0530 UTC 20 March 2019
Temperature: 24.0°C (75°F)
Dewpoint: -8.0°C (18°F) [RH = 11%]
Pressure (altimeter): 29.82 inches Hg (1010.0 mb)
Winds: from the NNW (340 degrees) at 6 MPH (5 knots; 2.6 m/s)
Visibility: 6 or more miles (10+ km)
Ceiling: ceiling and visibility are OK
Clouds: unknown
Weather: no significant weather observed at this time

METAR text: HSSS 200500Z 34007KT CAVOK 23/M06 Q1010 NOSIG
Conditions at: HSSS (KHARTOUM (CIV/MI, SD) observed 0500 UTC 20 March 2019
Temperature: 23.0°C (73°F)
Dewpoint: -6.0°C (21°F) [RH = 14%]
Pressure (altimeter): 29.82 inches Hg (1010.0 mb)
Winds: from the NNW (340 degrees) at 8 MPH (7 knots; 3.6 m/s)
Visibility: 6 or more miles (10+ km)
Ceiling: ceiling and visibility are OK
Clouds: unknown
Weather: no significant weather observed at this time

METAR text: HSSS 200430Z 33007KT CAVOK 22/M07 Q1009 NOSIG
Conditions at: HSSS (KHARTOUM (CIV/MI, SD) observed 0430 UTC 20 March 2019
Temperature: 22.0°C (72°F)
Dewpoint: -7.0°C (19°F) [RH = 14%]
Pressure (altimeter): 29.79 inches Hg (1009.0 mb)
Winds: from the NNW (330 degrees) at 8 MPH (7 knots; 3.6 m/s)
Visibility: 6 or more miles (10+ km)
Ceiling: ceiling and visibility are OK
Clouds: unknown
Weather: no significant weather observed at this time

METAR text: HSSS 200400Z 34010KT CAVOK 22/07 Q1009 NOSIG
Conditions at: HSSS (KHARTOUM (CIV/MI, SD) observed 0400 UTC 20 March 2019
Temperature: 22.0°C (72°F)
Dewpoint: 7.0°C (45°F) [RH = 38%]
Pressure (altimeter): 29.79 inches Hg (1009.0 mb)
Winds: from the NNW (340 degrees) at 12 MPH (10 knots; 5.1 m/s)
Visibility: 6 or more miles (10+ km)
Ceiling: ceiling and visibility are OK
Clouds: unknown
Weather: no significant weather observed at this time

METAR text: HSSS 200330Z 34008KT CAVOK 22/M07 Q1009 NOSIG
Conditions at: HSSS (KHARTOUM (CIV/MI, SD) observed 0330 UTC 20 March 2019
Temperature: 22.0°C (72°F)
Dewpoint: -7.0°C (19°F) [RH = 14%]
Pressure (altimeter): 29.79 inches Hg (1009.0 mb)
Winds: from the NNW (340 degrees) at 9 MPH (8 knots; 4.1 m/s)
Visibility: 6 or more miles (10+ km)
Ceiling: ceiling and visibility are OK
Clouds: unknown
Weather: no significant weather observed at this time

METAR text: HSSS 200300Z 33011KT CAVOK 23/M06 Q1009 NOSIG
Conditions at: HSSS (KHARTOUM (CIV/MI, SD) observed 0300 UTC 20 March 2019
Temperature: 23.0°C (73°F)
Dewpoint: -6.0°C (21°F) [RH = 14%]
Pressure (altimeter): 29.79 inches Hg (1009.0 mb)
Winds: from the NNW (330 degrees) at 13 MPH (11 knots; 5.7 m/s)
Visibility: 6 or more miles (10+ km)
Ceiling: ceiling and visibility are OK
Clouds: unknown
Weather: no significant weather observed at this time

METAR text: HSSS 200230Z 34011KT CAVOK 24/M08 Q1009 NOSIG
Conditions at: HSSS (KHARTOUM (CIV/MI, SD) observed 0230 UTC 20 March 2019
Temperature: 24.0°C (75°F)
Dewpoint: -8.0°C (18°F) [RH = 11%]
Pressure (altimeter): 29.79 inches Hg (1009.0 mb)
Winds: from the NNW (340 degrees) at 13 MPH (11 knots; 5.7 m/s)
Visibility: 6 or more miles (10+ km)
Ceiling: ceiling and visibility are OK
Clouds: unknown
Weather: no significant weather observed at this time

METAR text: HSSS 200200Z 34011KT CAVOK 24/M08 Q1009 NOSIG
Conditions at: HSSS (KHARTOUM (CIV/MI, SD) observed 0200 UTC 20 March 2019
Temperature: 24.0°C (75°F)
Dewpoint: -8.0°C (18°F) [RH = 11%]
Pressure (altimeter): 29.79 inches Hg (1009.0 mb)
Winds: from the NNW (340 degrees) at 13 MPH (11 knots; 5.7 m/s)
Visibility: 6 or more miles (10+ km)
Ceiling: ceiling and visibility are OK
Clouds: unknown
Weather: no significant weather observed at this time

METAR text: HSSS 200130Z 33010KT CAVOK 24/M08 Q1009 NOSIG
Conditions at: HSSS (KHARTOUM (CIV/MI, SD) observed 0130 UTC 20 March 2019
Temperature: 24.0°C (75°F)
Dewpoint: -8.0°C (18°F) [RH = 11%]
Pressure (altimeter): 29.79 inches Hg (1009.0 mb)
Winds: from the NNW (330 degrees) at 12 MPH (10 knots; 5.1 m/s)
Visibility: 6 or more miles (10+ km)
Ceiling: ceiling and visibility are OK
Clouds: unknown
Weather: no significant weather observed at this time

METAR text: HSSS 200100Z 33010KT CAVOK 24/M08 Q1009 NOSIG
Conditions at: HSSS (KHARTOUM (CIV/MI, SD) observed 0100 UTC 20 March 2019
Temperature: 24.0°C (75°F)
Dewpoint: -8.0°C (18°F) [RH = 11%]
Pressure (altimeter): 29.79 inches Hg (1009.0 mb)
Winds: from the NNW (330 degrees) at 12 MPH (10 knots; 5.1 m/s)
Visibility: 6 or more miles (10+ km)
Ceiling: ceiling and visibility are OK
Clouds: unknown
Weather: no significant weather observed at this time

METAR text: HSSS 200030Z 33010KT CAVOK 24/M08 Q1009 NOSIG
Conditions at: HSSS (KHARTOUM (CIV/MI, SD) observed 0030 UTC 20 March 2019
Temperature: 24.0°C (75°F)
Dewpoint: -8.0°C (18°F) [RH = 11%]
Pressure (altimeter): 29.79 inches Hg (1009.0 mb)
Winds: from the NNW (330 degrees) at 12 MPH (10 knots; 5.1 m/s)
Visibility: 6 or more miles (10+ km)
Ceiling: ceiling and visibility are OK
Clouds: unknown
Weather: no significant weather observed at this time

METAR text: HSSS 200000Z 34010KT CAVOK 25/M05 Q1009 NOSIG
Conditions at: HSSS (KHARTOUM (CIV/MI, SD) observed 0000 UTC 20 March 2019
Temperature: 25.0°C (77°F)
Dewpoint: -5.0°C (23°F) [RH = 13%]
Pressure (altimeter): 29.79 inches Hg (1009.0 mb)
Winds: from the NNW (340 degrees) at 12 MPH (10 knots; 5.1 m/s)
Visibility: 6 or more miles (10+ km)
Ceiling: ceiling and visibility are OK
Clouds: unknown
Weather: no significant weather observed at this time

METAR text: HSSS 192330Z 33011KT CAVOK 25/M05 Q1009 NOSIG
Conditions at: HSSS (KHARTOUM (CIV/MI, SD) observed 2330 UTC 19 March 2019
Temperature: 25.0°C (77°F)
Dewpoint: -5.0°C (23°F) [RH = 13%]
Pressure (altimeter): 29.79 inches Hg (1009.0 mb)
Winds: from the NNW (330 degrees) at 13 MPH (11 knots; 5.7 m/s)
Visibility: 6 or more miles (10+ km)
Ceiling: ceiling and visibility are OK
Clouds: unknown
Weather: no significant weather observed at this time

METAR text: HSSS 192300Z 35010KT CAVOK 26/M08 Q1010 NOSIG
Conditions at: HSSS (KHARTOUM (CIV/MI, SD) observed 2300 UTC 19 March 2019
Temperature: 26.0°C (79°F)
Dewpoint: -8.0°C (18°F) [RH = 10%]
Pressure (altimeter): 29.82 inches Hg (1010.0 mb)
Winds: from the N (350 degrees) at 12 MPH (10 knots; 5.1 m/s)
Visibility: 6 or more miles (10+ km)
Ceiling: ceiling and visibility are OK
Clouds: unknown
Weather: no significant weather observed at this time

METAR text: HSSS 192230Z 32010KT CAVOK 27/M08 Q1010 NOSIG
Conditions at: HSSS (KHARTOUM (CIV/MI, SD) observed 2230 UTC 19 March 2019
Temperature: 27.0°C (81°F)
Dewpoint: -8.0°C (18°F) [RH =  9%]
Pressure (altimeter): 29.82 inches Hg (1010.0 mb)
Winds: from the NW (320 degrees) at 12 MPH (10 knots; 5.1 m/s)
Visibility: 6 or more miles (10+ km)
Ceiling: ceiling and visibility are OK
Clouds: unknown
Weather: no significant weather observed at this time

METAR text: HSSS 192200Z 33012KT CAVOK 27/M08 Q1010 NOSIG
Conditions at: HSSS (KHARTOUM (CIV/MI, SD) observed 2200 UTC 19 March 2019
Temperature: 27.0°C (81°F)
Dewpoint: -8.0°C (18°F) [RH =  9%]
Pressure (altimeter): 29.82 inches Hg (1010.0 mb)
Winds: from the NNW (330 degrees) at 14 MPH (12 knots; 6.2 m/s)
Visibility: 6 or more miles (10+ km)
Ceiling: ceiling and visibility are OK
Clouds: unknown
Weather: no significant weather observed at this time

METAR text: HSSS 192130Z 32010KT CAVOK 27/M06 Q1010 NOSIG
Conditions at: HSSS (KHARTOUM (CIV/MI, SD) observed 2130 UTC 19 March 2019
Temperature: 27.0°C (81°F)
Dewpoint: -6.0°C (21°F) [RH = 11%]
Pressure (altimeter): 29.82 inches Hg (1010.0 mb)
Winds: from the NW (320 degrees) at 12 MPH (10 knots; 5.1 m/s)
Visibility: 6 or more miles (10+ km)
Ceiling: ceiling and visibility are OK
Clouds: unknown
Weather: no significant weather observed at this time

METAR text: HSSS 192100Z 32012KT CAVOK 28/M07 Q1011 NOSIG
Conditions at: HSSS (KHARTOUM (CIV/MI, SD) observed 2100 UTC 19 March 2019
Temperature: 28.0°C (82°F)
Dewpoint: -7.0°C (19°F) [RH = 10%]
Pressure (altimeter): 29.85 inches Hg (1011.0 mb)
Winds: from the NW (320 degrees) at 14 MPH (12 knots; 6.2 m/s)
Visibility: 6 or more miles (10+ km)
Ceiling: ceiling and visibility are OK
Clouds: unknown
Weather: no significant weather observed at this time

METAR text: HSSS 192030Z 32010KT CAVOK 27/M06 Q1011 NOSIG
Conditions at: HSSS (KHARTOUM (CIV/MI, SD) observed 2030 UTC 19 March 2019
Temperature: 27.0°C (81°F)
Dewpoint: -6.0°C (21°F) [RH = 11%]
Pressure (altimeter): 29.85 inches Hg (1011.0 mb)
Winds: from the NW (320 degrees) at 12 MPH (10 knots; 5.1 m/s)
Visibility: 6 or more miles (10+ km)
Ceiling: ceiling and visibility are OK
Clouds: unknown
Weather: no significant weather observed at this time

METAR text: HSSS 192000Z 33006KT CAVOK 27/M06 Q1011 NOSIG
Conditions at: HSSS (KHARTOUM (CIV/MI, SD) observed 2000 UTC 19 March 2019
Temperature: 27.0°C (81°F)
Dewpoint: -6.0°C (21°F) [RH = 11%]
Pressure (altimeter): 29.85 inches Hg (1011.0 mb)
Winds: from the NNW (330 degrees) at 7 MPH (6 knots; 3.1 m/s)
Visibility: 6 or more miles (10+ km)
Ceiling: ceiling and visibility are OK
Clouds: unknown
Weather: no significant weather observed at this time

METAR text: HSSS 191930Z 31007KT CAVOK 28/M05 Q1010 NOSIG
Conditions at: HSSS (KHARTOUM (CIV/MI, SD) observed 1930 UTC 19 March 2019
Temperature: 28.0°C (82°F)
Dewpoint: -5.0°C (23°F) [RH = 11%]
Pressure (altimeter): 29.82 inches Hg (1010.0 mb)
Winds: from the NW (310 degrees) at 8 MPH (7 knots; 3.6 m/s)
Visibility: 6 or more miles (10+ km)
Ceiling: ceiling and visibility are OK
Clouds: unknown
Weather: no significant weather observed at this time

METAR text: HSSS 191900Z 32007KT CAVOK 29/M03 Q1010 NOSIG
Conditions at: HSSS (KHARTOUM (CIV/MI, SD) observed 1900 UTC 19 March 2019
Temperature: 29.0°C (84°F)
Dewpoint: -3.0°C (27°F) [RH = 12%]
Pressure (altimeter): 29.82 inches Hg (1010.0 mb)
Winds: from the NW (320 degrees) at 8 MPH (7 knots; 3.6 m/s)
Visibility: 6 or more miles (10+ km)
Ceiling: ceiling and visibility are OK
Clouds: unknown
Weather: no significant weather observed at this time

METAR text: HSSS 191830Z 32006KT CAVOK 29/M04 Q1010 NOSIG
Conditions at: HSSS (KHARTOUM (CIV/MI, SD) observed 1830 UTC 19 March 2019
Temperature: 29.0°C (84°F)
Dewpoint: -4.0°C (25°F) [RH = 11%]
Pressure (altimeter): 29.82 inches Hg (1010.0 mb)
Winds: from the NW (320 degrees) at 7 MPH (6 knots; 3.1 m/s)
Visibility: 6 or more miles (10+ km)
Ceiling: ceiling and visibility are OK
Clouds: unknown
Weather: no significant weather observed at this time

METAR text: HSSS 191800Z 33006KT CAVOK 30/M03 Q1009 NOSIG
Conditions at: HSSS (KHARTOUM (CIV/MI, SD) observed 1800 UTC 19 March 2019
Temperature: 30.0°C (86°F)
Dewpoint: -3.0°C (27°F) [RH = 12%]
Pressure (altimeter): 29.79 inches Hg (1009.0 mb)
Winds: from the NNW (330 degrees) at 7 MPH (6 knots; 3.1 m/s)
Visibility: 6 or more miles (10+ km)
Ceiling: ceiling and visibility are OK
Clouds: unknown
Weather: no significant weather observed at this time

METAR text: HSSS 191730Z 33007KT CAVOK 30/M03 Q1009 NOSIG
Conditions at: HSSS (KHARTOUM (CIV/MI, SD) observed 1730 UTC 19 March 2019
Temperature: 30.0°C (86°F)
Dewpoint: -3.0°C (27°F) [RH = 12%]
Pressure (altimeter): 29.79 inches Hg (1009.0 mb)
Winds: from the NNW (330 degrees) at 8 MPH (7 knots; 3.6 m/s)
Visibility: 6 or more miles (10+ km)
Ceiling: ceiling and visibility are OK
Clouds: unknown
Weather: no significant weather observed at this time

METAR text: HSSS 191700Z 34006KT CAVOK 31/M03 Q1009 NOSIG
Conditions at: HSSS (KHARTOUM (CIV/MI, SD) observed 1700 UTC 19 March 2019
Temperature: 31.0°C (88°F)
Dewpoint: -3.0°C (27°F) [RH = 11%]
Pressure (altimeter): 29.79 inches Hg (1009.0 mb)
Winds: from the NNW (340 degrees) at 7 MPH (6 knots; 3.1 m/s)
Visibility: 6 or more miles (10+ km)
Ceiling: ceiling and visibility are OK
Clouds: unknown
Weather: no significant weather observed at this time

METAR text: HSSS 191630Z 35007KT CAVOK 33/M04 Q1008 NOSIG
Conditions at: HSSS (KHARTOUM (CIV/MI, SD) observed 1630 UTC 19 March 2019
Temperature: 33.0°C (91°F)
Dewpoint: -4.0°C (25°F) [RH =  9%]
Pressure (altimeter): 29.76 inches Hg (1008.0 mb)
Winds: from the N (350 degrees) at 8 MPH (7 knots; 3.6 m/s)
Visibility: 6 or more miles (10+ km)
Ceiling: ceiling and visibility are OK
Clouds: unknown
Weather: no significant weather observed at this time

METAR text: HSSS 191600Z 35008KT CAVOK 34/M04 Q1008 NOSIG
Conditions at: HSSS (KHARTOUM (CIV/MI, SD) observed 1600 UTC 19 March 2019
Temperature: 34.0°C (93°F)
Dewpoint: -4.0°C (25°F) [RH =  9%]
Pressure (altimeter): 29.76 inches Hg (1008.0 mb)
Winds: from the N (350 degrees) at 9 MPH (8 knots; 4.1 m/s)
Visibility: 6 or more miles (10+ km)
Ceiling: ceiling and visibility are OK
Clouds: unknown
Weather: no significant weather observed at this time

METAR text: HSSS 191530Z 36010KT CAVOK 35/M07 Q1008 NOSIG
Conditions at: HSSS (KHARTOUM (CIV/MI, SD) observed 1530 UTC 19 March 2019
Temperature: 35.0°C (95°F)
Dewpoint: -7.0°C (19°F) [RH =  6%]
Pressure (altimeter): 29.76 inches Hg (1008.0 mb)
Winds: from the N (360 degrees) at 12 MPH (10 knots; 5.1 m/s)
Visibility: 6 or more miles (10+ km)
Ceiling: ceiling and visibility are OK
Clouds: unknown
Weather: no significant weather observed at this time

METAR text: HSSS 191500Z 36012KT CAVOK 35/M04 Q1008 NOSIG
Conditions at: HSSS (KHARTOUM (CIV/MI, SD) observed 1500 UTC 19 March 2019
Temperature: 35.0°C (95°F)
Dewpoint: -4.0°C (25°F) [RH =  8%]
Pressure (altimeter): 29.76 inches Hg (1008.0 mb)
Winds: from the N (360 degrees) at 14 MPH (12 knots; 6.2 m/s)
Visibility: 6 or more miles (10+ km)
Ceiling: ceiling and visibility are OK
Clouds: unknown
Weather: no significant weather observed at this time

METAR text: HSSS 191430Z 36009KT CAVOK 36/M03 Q1008 NOSIG
Conditions at: HSSS (KHARTOUM (CIV/MI, SD) observed 1430 UTC 19 March 2019
Temperature: 36.0°C (97°F)
Dewpoint: -3.0°C (27°F) [RH =  8%]
Pressure (altimeter): 29.76 inches Hg (1008.0 mb)
Winds: from the N (360 degrees) at 10 MPH (9 knots; 4.6 m/s)
Visibility: 6 or more miles (10+ km)
Ceiling: ceiling and visibility are OK
Clouds: unknown
Weather: no significant weather observed at this time

METAR text: HSSS 191400Z 32010KT CAVOK 36/M03 Q1008 NOSIG
Conditions at: HSSS (KHARTOUM (CIV/MI, SD) observed 1400 UTC 19 March 2019
Temperature: 36.0°C (97°F)
Dewpoint: -3.0°C (27°F) [RH =  8%]
Pressure (altimeter): 29.76 inches Hg (1008.0 mb)
Winds: from the NW (320 degrees) at 12 MPH (10 knots; 5.1 m/s)
Visibility: 6 or more miles (10+ km)
Ceiling: ceiling and visibility are OK
Clouds: unknown
Weather: no significant weather observed at this time

METAR text: HSSS 191330Z 36010KT CAVOK 36/M03 Q1008 NOSIG
Conditions at: HSSS (KHARTOUM (CIV/MI, SD) observed 1330 UTC 19 March 2019
Temperature: 36.0°C (97°F)
Dewpoint: -3.0°C (27°F) [RH =  8%]
Pressure (altimeter): 29.76 inches Hg (1008.0 mb)
Winds: from the N (360 degrees) at 12 MPH (10 knots; 5.1 m/s)
Visibility: 6 or more miles (10+ km)
Ceiling: ceiling and visibility are OK
Clouds: unknown
Weather: no significant weather observed at this time

METAR text: HSSS 191300Z 34009KT CAVOK 36/M03 Q1008 NOSIG
Conditions at: HSSS (KHARTOUM (CIV/MI, SD) observed 1300 UTC 19 March 2019
Temperature: 36.0°C (97°F)
Dewpoint: -3.0°C (27°F) [RH =  8%]
Pressure (altimeter): 29.76 inches Hg (1008.0 mb)
Winds: from the NNW (340 degrees) at 10 MPH (9 knots; 4.6 m/s)
Visibility: 6 or more miles (10+ km)
Ceiling: ceiling and visibility are OK
Clouds: unknown
Weather: no significant weather observed at this time

METAR text: HSSS 191230Z 33012KT CAVOK 35/M01 Q1008 NOSIG
Conditions at: HSSS (KHARTOUM (CIV/MI, SD) observed 1230 UTC 19 March 2019
Temperature: 35.0°C (95°F)
Dewpoint: -1.0°C (30°F) [RH = 10%]
Pressure (altimeter): 29.76 inches Hg (1008.0 mb)
Winds: from the NNW (330 degrees) at 14 MPH (12 knots; 6.2 m/s)
Visibility: 6 or more miles (10+ km)
Ceiling: ceiling and visibility are OK
Clouds: unknown
Weather: no significant weather observed at this time

METAR text: HSSS 191200Z 33006KT CAVOK 35/M01 Q1009 NOSIG
Conditions at: HSSS (KHARTOUM (CIV/MI, SD) observed 1200 UTC 19 March 2019
Temperature: 35.0°C (95°F)
Dewpoint: -1.0°C (30°F) [RH = 10%]
Pressure (altimeter): 29.79 inches Hg (1009.0 mb)
Winds: from the NNW (330 degrees) at 7 MPH (6 knots; 3.1 m/s)
Visibility: 6 or more miles (10+ km)
Ceiling: ceiling and visibility are OK
Clouds: unknown
Weather: no significant weather observed at this time

METAR text: HSSS 191130Z 34009KT CAVOK 36/M03 Q1009 NOSIG
Conditions at: HSSS (KHARTOUM (CIV/MI, SD) observed 1130 UTC 19 March 2019
Temperature: 36.0°C (97°F)
Dewpoint: -3.0°C (27°F) [RH =  8%]
Pressure (altimeter): 29.79 inches Hg (1009.0 mb)
Winds: from the NNW (340 degrees) at 10 MPH (9 knots; 4.6 m/s)
Visibility: 6 or more miles (10+ km)
Ceiling: ceiling and visibility are OK
Clouds: unknown
Weather: no significant weather observed at this time

METAR text: HSSS 191100Z 34008KT CAVOK 34/M04 Q1010 NOSIG
Conditions at: HSSS (KHARTOUM (CIV/MI, SD) observed 1100 UTC 19 March 2019
Temperature: 34.0°C (93°F)
Dewpoint: -4.0°C (25°F) [RH =  9%]
Pressure (altimeter): 29.82 inches Hg (1010.0 mb)
Winds: from the NNW (340 degrees) at 9 MPH (8 knots; 4.1 m/s)
Visibility: 6 or more miles (10+ km)
Ceiling: ceiling and visibility are OK
Clouds: unknown
Weather: no significant weather observed at this time

METAR text: HSSS 191000Z 01009KT CAVOK 33/M02 Q1011 NOSIG
Conditions at: HSSS (KHARTOUM (CIV/MI, SD) observed 1000 UTC 19 March 2019
Temperature: 33.0°C (91°F)
Dewpoint: -2.0°C (28°F) [RH = 10%]
Pressure (altimeter): 29.85 inches Hg (1011.0 mb)
Winds: from the N (10 degrees) at 10 MPH (9 knots; 4.6 m/s)
Visibility: 6 or more miles (10+ km)
Ceiling: ceiling and visibility are OK
Clouds: unknown
Weather: no significant weather observed at this time

METAR text: HSSS 190930Z 36011KT CAVOK 32/00 Q1011 NOSIG
Conditions at: HSSS (KHARTOUM (CIV/MI, SD) observed 0930 UTC 19 March 2019
Temperature: 32.0°C (90°F)
Dewpoint: 0.0°C (32°F) [RH = 13%]
Pressure (altimeter): 29.85 inches Hg (1011.0 mb)
Winds: from the N (360 degrees) at 13 MPH (11 knots; 5.7 m/s)
Visibility: 6 or more miles (10+ km)
Ceiling: ceiling and visibility are OK
Clouds: unknown
Weather: no significant weather observed at this time

METAR text: HSSS 190900Z 34008KT CAVOK 32/00 Q1012 NOSIG
Conditions at: HSSS (KHARTOUM (CIV/MI, SD) observed 0900 UTC 19 March 2019
Temperature: 32.0°C (90°F)
Dewpoint: 0.0°C (32°F) [RH = 13%]
Pressure (altimeter): 29.88 inches Hg (1012.0 mb)
Winds: from the NNW (340 degrees) at 9 MPH (8 knots; 4.1 m/s)
Visibility: 6 or more miles (10+ km)
Ceiling: ceiling and visibility are OK
Clouds: unknown
Weather: no significant weather observed at this time

METAR text: HSSS 190830Z 02010KT CAVOK 31/M03 Q1012 NOSIG
Conditions at: HSSS (KHARTOUM (CIV/MI, SD) observed 0830 UTC 19 March 2019
Temperature: 31.0°C (88°F)
Dewpoint: -3.0°C (27°F) [RH = 11%]
Pressure (altimeter): 29.88 inches Hg (1012.0 mb)
Winds: from the NNE (20 degrees) at 12 MPH (10 knots; 5.1 m/s)
Visibility: 6 or more miles (10+ km)
Ceiling: ceiling and visibility are OK
Clouds: unknown
Weather: no significant weather observed at this time

METAR text: HSSS 190800Z 03012KT CAVOK 30/M06 Q1012 NOSIG
Conditions at: HSSS (KHARTOUM (CIV/MI, SD) observed 0800 UTC 19 March 2019
Temperature: 30.0°C (86°F)
Dewpoint: -6.0°C (21°F) [RH =  9%]
Pressure (altimeter): 29.88 inches Hg (1012.0 mb)
Winds: from the NNE (30 degrees) at 14 MPH (12 knots; 6.2 m/s)
Visibility: 6 or more miles (10+ km)
Ceiling: ceiling and visibility are OK
Clouds: unknown
Weather: no significant weather observed at this time

METAR text: HSSS 190730Z 01012KT CAVOK 28/M05 Q1013 NOSIG
Conditions at: HSSS (KHARTOUM (CIV/MI, SD) observed 0730 UTC 19 March 2019
Temperature: 28.0°C (82°F)
Dewpoint: -5.0°C (23°F) [RH = 11%]
Pressure (altimeter): 29.91 inches Hg (1013.0 mb)
Winds: from the N (10 degrees) at 14 MPH (12 knots; 6.2 m/s)
Visibility: 6 or more miles (10+ km)
Ceiling: ceiling and visibility are OK
Clouds: unknown
Weather: no significant weather observed at this time

METAR text: HSSS 190700Z 36012KT CAVOK 27/M07 Q1013 NOSIG
Conditions at: HSSS (KHARTOUM (CIV/MI, SD) observed 0700 UTC 19 March 2019
Temperature: 27.0°C (81°F)
Dewpoint: -7.0°C (19°F) [RH = 10%]
Pressure (altimeter): 29.91 inches Hg (1013.0 mb)
Winds: from the N (360 degrees) at 14 MPH (12 knots; 6.2 m/s)
Visibility: 6 or more miles (10+ km)
Ceiling: ceiling and visibility are OK
Clouds: unknown
Weather: no significant weather observed at this time

METAR text: HSSS 190630Z 01010KT CAVOK 26/M07 Q1013 NOSIG
Conditions at: HSSS (KHARTOUM (CIV/MI, SD) observed 0630 UTC 19 March 2019
Temperature: 26.0°C (79°F)
Dewpoint: -7.0°C (19°F) [RH = 11%]
Pressure (altimeter): 29.91 inches Hg (1013.0 mb)
Winds: from the N (10 degrees) at 12 MPH (10 knots; 5.1 m/s)
Visibility: 6 or more miles (10+ km)
Ceiling: ceiling and visibility are OK
Clouds: unknown
Weather: no significant weather observed at this time

METAR text: HSSS 190600Z 35010KT CAVOK 24/M07 Q1013 NOSIG
Conditions at: HSSS (KHARTOUM (CIV/MI, SD) observed 0600 UTC 19 March 2019
Temperature: 24.0°C (75°F)
Dewpoint: -7.0°C (19°F) [RH = 12%]
Pressure (altimeter): 29.91 inches Hg (1013.0 mb)
Winds: from the N (350 degrees) at 12 MPH (10 knots; 5.1 m/s)
Visibility: 6 or more miles (10+ km)
Ceiling: ceiling and visibility are OK
Clouds: unknown
Weather: no significant weather observed at this time

METAR text: HSSS 190530Z 34008KT CAVOK 23/M09 Q1013 NOSIG
Conditions at: HSSS (KHARTOUM (CIV/MI, SD) observed 0530 UTC 19 March 2019
Temperature: 23.0°C (73°F)
Dewpoint: -9.0°C (16°F) [RH = 11%]
Pressure (altimeter): 29.91 inches Hg (1013.0 mb)
Winds: from the NNW (340 degrees) at 9 MPH (8 knots; 4.1 m/s)
Visibility: 6 or more miles (10+ km)
Ceiling: ceiling and visibility are OK
Clouds: unknown
Weather: no significant weather observed at this time

METAR text: HSSS 190500Z 35008KT CAVOK 22/M09 Q1012 NOSIG
Conditions at: HSSS (KHARTOUM (CIV/MI, SD) observed 0500 UTC 19 March 2019
Temperature: 22.0°C (72°F)
Dewpoint: -9.0°C (16°F) [RH = 12%]
Pressure (altimeter): 29.88 inches Hg (1012.0 mb)
Winds: from the N (350 degrees) at 9 MPH (8 knots; 4.1 m/s)
Visibility: 6 or more miles (10+ km)
Ceiling: ceiling and visibility are OK
Clouds: unknown
Weather: no significant weather observed at this time

METAR text: HSSS 190430Z 35008KT CAVOK 20/M08 Q1012 NOSIG
Conditions at: HSSS (KHARTOUM (CIV/MI, SD) observed 0430 UTC 19 March 2019
Temperature: 20.0°C (68°F)
Dewpoint: -8.0°C (18°F) [RH = 14%]
Pressure (altimeter): 29.88 inches Hg (1012.0 mb)
Winds: from the N (350 degrees) at 9 MPH (8 knots; 4.1 m/s)
Visibility: 6 or more miles (10+ km)
Ceiling: ceiling and visibility are OK
Clouds: unknown
Weather: no significant weather observed at this time

METAR text: HSSS 190400Z 35008KT CAVOK 20/M09 Q1012 NOSIG
Conditions at: HSSS (KHARTOUM (CIV/MI, SD) observed 0400 UTC 19 March 2019
Temperature: 20.0°C (68°F)
Dewpoint: -9.0°C (16°F) [RH = 13%]
Pressure (altimeter): 29.88 inches Hg (1012.0 mb)
Winds: from the N (350 degrees) at 9 MPH (8 knots; 4.1 m/s)
Visibility: 6 or more miles (10+ km)
Ceiling: ceiling and visibility are OK
Clouds: unknown
Weather: no significant weather observed at this time

Forecast for: HSSS (KHARTOUM (CIV/MI, SD)
Text: TAF HSSS 201100Z 2012/2118 36012G20KT CAVOK
Forecast period: 1200 UTC 20 March 2019 to 1800 UTC 21 March 2019
Forecast type: FROM: standard forecast or significant change
Winds: from the N (360 degrees) at 14 MPH (12 knots; 6.2 m/s)
gusting to 23 MPH (20 knots; 10.3 m/s)
Visibility: 6 or more miles 10+ km)
Ceiling: unknown
Clouds: missing
Weather: NSW  (no significant weather)